This is the latest recevied weather packets stored in our database for station/object K6OUA-11. If no packets are shown the sender has not sent any weather packets the latest 10 day(s).
| Time | Temp. | Humidity | Pressure | Rain* | Wind** | Luminosity | Snow |
|---|---|---|---|---|---|---|---|
| 1778167606 | 17.22° C | 73% | - | 0 mm | - | - | - |
| 1778167484 | 17.22° C | 73% | - | 0 mm | - | - | - |
| 1778167479 | 16.67° C | 74% | - | 0 mm | - | - | - |
| 1778167362 | 17.22° C | 72% | - | 0 mm | - | - | - |
| 1778167238 | 17.22° C | 74% | - | 0 mm | - | - | - |
| 1778167118 | 16.67° C | 74% | - | 0 mm | - | - | - |
| 1778166996 | 16.67° C | 74% | - | 0 mm | - | - | - |
| 1778166874 | 16.67° C | 74% | - | 0 mm | - | - | - |
| 1778166750 | 16.67° C | 73% | - | 0 mm | - | - | - |
| 1778166630 | 16.67° C | 74% | - | 0 mm | - | - | - |
| 1778166508 | 16.67° C | 74% | - | 0 mm | - | - | - |
| 1778166386 | 16.67° C | 73% | - | 0 mm | - | - | - |
| 1778166264 | 16.67° C | 73% | - | 0 mm | - | - | - |
| 1778166143 | 16.67° C | 73% | - | 0 mm | - | - | - |
| 1778166019 | 16.67° C | 74% | - | 0 mm | - | - | - |
| 1778165899 | 16.67° C | 75% | - | 0 mm | - | - | - |
| 1778165776 | 16.67° C | 75% | - | 0 mm | - | - | - |
| 1778165655 | 16.67° C | 75% | - | 0 mm | - | - | - |
| 1778165533 | 16.11° C | 76% | - | 0 mm | - | - | - |
| 1778165411 | 16.11° C | 76% | - | 0 mm | - | - | - |
| 1778165289 | 16.11° C | 76% | - | 0 mm | - | - | - |
| 1778165167 | 16.11° C | 76% | - | 0 mm | - | - | - |
| 1778165046 | 16.11° C | 76% | - | 0 mm | - | - | - |
| 1778164680 | 15.56° C | 79% | - | 0 mm | - | - | - |
| 1778164436 | 15° C | 81% | - | 0 mm | - | - | - |
* Rain latest 24 hours (hover to see other rain measurements)
** Current wind speed in m/s (hover to see current wind gust speed)